createdAt,value
2022-10-07T00:00:06.109Z,1114
2022-10-07T00:15:03.826Z,1117
2022-10-07T00:30:04.922Z,1120
2022-10-07T00:45:04.244Z,1121
2022-10-07T01:00:02.730Z,1123
2022-10-07T01:15:04.974Z,1126
2022-10-07T01:45:02.988Z,1134
2022-10-07T02:15:03.190Z,1124
2022-10-07T02:30:04.843Z,1115
2022-10-07T02:45:05.783Z,1103
2022-10-07T03:00:02.163Z,1092
2022-10-07T03:15:02.030Z,1085
2022-10-07T03:30:01.771Z,1076
2022-10-07T03:45:05.149Z,1067
2022-10-07T04:00:01.987Z,1073
2022-10-07T04:15:01.812Z,1056
2022-10-07T04:30:03.212Z,1009
2022-10-07T04:45:06.299Z,940
2022-10-07T05:00:01.867Z,883
2022-10-07T05:15:06.235Z,815
2022-10-07T05:30:02.019Z,781
2022-10-07T05:45:01.782Z,773
2022-10-07T06:00:05.164Z,776
2022-10-07T06:15:06.100Z,773
2022-10-07T06:30:04.843Z,767
2022-10-07T06:45:03.294Z,744
2022-10-07T07:00:03.033Z,718
2022-10-07T07:15:04.040Z,697
2022-10-07T07:30:02.148Z,667
2022-10-07T07:45:03.990Z,635
2022-10-07T08:00:04.047Z,608
2022-10-07T08:15:02.181Z,590
2022-10-07T08:30:05.918Z,585
2022-10-07T08:45:03.158Z,593
2022-10-07T09:00:02.821Z,604
2022-10-07T09:15:06.059Z,611
2022-10-07T09:30:05.857Z,614
2022-10-07T09:45:03.123Z,608
2022-10-07T10:00:03.785Z,589
2022-10-07T10:15:05.844Z,570
2022-10-07T10:30:02.152Z,552
2022-10-07T10:45:02.060Z,532
2022-10-07T11:00:03.295Z,517
2022-10-07T11:15:03.887Z,521
2022-10-07T11:30:02.935Z,535
2022-10-07T11:45:05.153Z,561
2022-10-07T12:00:04.012Z,598
2022-10-07T12:15:06.051Z,643
2022-10-07T12:30:04.770Z,683
2022-10-07T12:45:05.245Z,723
2022-10-07T13:00:04.085Z,761
2022-10-07T13:15:05.128Z,788
2022-10-07T13:30:05.085Z,811
2022-10-07T13:45:03.937Z,833
2022-10-07T14:00:05.984Z,848
2022-10-07T14:15:03.244Z,875
2022-10-07T14:30:03.888Z,893
2022-10-07T14:45:02.912Z,903
2022-10-07T15:00:02.124Z,917
2022-10-07T15:15:01.903Z,944
2022-10-07T15:30:03.304Z,944
2022-10-07T15:45:02.966Z,962
2022-10-07T16:00:06.183Z,992
2022-10-07T16:15:05.943Z,1003
2022-10-07T16:30:06.266Z,1010
2022-10-07T16:45:04.975Z,1036
2022-10-07T17:00:03.868Z,1072
2022-10-07T17:15:05.972Z,1112
2022-10-07T17:30:02.726Z,1167
2022-10-07T17:45:04.978Z,1214
2022-10-07T18:00:05.881Z,1253
2022-10-07T18:15:02.165Z,1290
2022-10-07T18:30:04.977Z,1319
2022-10-07T18:45:02.886Z,1338
2022-10-07T19:00:02.110Z,1356
2022-10-07T19:15:04.870Z,1375
2022-10-07T19:30:01.783Z,1379
2022-10-07T19:45:04.100Z,1384
2022-10-07T20:00:04.219Z,1390
2022-10-07T20:15:03.304Z,1391
2022-10-07T20:30:05.962Z,1390
2022-10-07T20:45:03.302Z,1384
2022-10-07T21:00:04.882Z,1369
2022-10-07T21:15:01.846Z,1349
2022-10-07T21:30:04.230Z,1328
2022-10-07T21:45:01.771Z,1303
2022-10-07T22:00:05.123Z,1278
2022-10-07T22:15:04.008Z,1252
2022-10-07T22:30:02.007Z,1231
2022-10-07T22:45:05.822Z,1209
2022-10-07T23:00:04.124Z,1197
2022-10-07T23:15:04.120Z,1183
2022-10-07T23:30:05.166Z,1172
2022-10-07T23:45:04.124Z,1154
